Time;durP1;ratioP1;P1;durP2;ratioP2;P2;SDS_P1;SDS_P2;PMS_P1;PMS_P2;Temp;Humidity;BMP_temperature;BMP_pressure;BME280_temperature;BME280_humidity;BME280_pressure;Samples;Min_cycle;Max_cycle;Signal;HPM_P1;HPM_P2
2021/12/08 00:00:16;;;;;;;13.68;3.33;;;3.10;99.90;;;;;;4995992;28;20061;-77
2021/12/08 00:02:43;;;;;;;18.67;4.68;;;3.10;99.90;;;;;;4995192;28;20053;-77
2021/12/08 00:05:13;;;;;;;11.93;3.63;;;3.10;99.90;;;;;;5014587;28;20085;-77
2021/12/08 00:07:39;;;;;;;10.88;2.78;;;3.10;99.90;;;;;;4996382;28;20056;-77
2021/12/08 00:13:07;;;;;;;11.75;3.55;;;3.10;99.90;;;;;;4943760;28;20130;-77
2021/12/08 00:15:42;;;;;;;14.85;3.08;;;3.10;99.90;;;;;;4995785;28;20204;-78
2021/12/08 00:18:14;;;;;;;13.52;3.67;;;3.20;99.90;;;;;;5003440;28;20133;-78
2021/12/08 00:20:42;;;;;;;13.02;3.42;;;3.10;99.90;;;;;;4985391;28;20486;-78
2021/12/08 00:23:09;;;;;;;9.93;2.83;;;3.20;99.90;;;;;;5002804;28;20061;-77
2021/12/08 00:25:36;;;;;;;11.20;3.47;;;3.20;99.90;;;;;;5015063;28;20050;-77
2021/12/08 00:28:07;;;;;;;10.10;3.35;;;3.30;99.90;;;;;;5014190;28;20057;-77
2021/12/08 00:30:34;;;;;;;9.43;3.33;;;3.20;99.90;;;;;;5015262;28;20042;-77
2021/12/08 00:33:00;;;;;;;11.00;3.40;;;3.20;99.90;;;;;;5014332;28;20217;-77
2021/12/08 00:35:28;;;;;;;15.95;3.60;;;3.20;99.90;;;;;;5015191;28;20104;-77
2021/12/08 00:37:55;;;;;;;11.38;3.40;;;3.20;99.90;;;;;;5010275;28;20046;-77
2021/12/08 00:40:22;;;;;;;9.00;3.35;;;3.20;99.90;;;;;;4994715;28;20202;-77
2021/12/08 00:42:48;;;;;;;8.38;3.17;;;3.20;99.90;;;;;;4995375;28;20047;-77
2021/12/08 00:45:15;;;;;;;9.88;3.90;;;3.30;99.90;;;;;;4994867;28;20108;-76
2021/12/08 00:47:41;;;;;;;5.53;3.22;;;3.30;99.90;;;;;;4997270;28;20038;-76
2021/12/08 00:50:09;;;;;;;10.35;4.47;;;3.30;99.90;;;;;;4998312;28;20507;-78
2021/12/08 00:52:36;;;;;;;12.43;4.05;;;3.30;99.90;;;;;;4996409;28;20037;-77
2021/12/08 00:55:05;;;;;;;8.63;4.40;;;3.30;99.90;;;;;;4994001;28;20058;-78
2021/12/08 00:57:31;;;;;;;14.10;4.03;;;3.30;99.90;;;;;;4994888;28;20054;-76
2021/12/08 00:59:57;;;;;;;13.18;3.85;;;3.30;99.90;;;;;;4994835;28;20128;-77
2021/12/08 01:02:22;;;;;;;18.60;5.68;;;3.30;99.90;;;;;;4995355;28;20061;-77
2021/12/08 01:04:48;;;;;;;8.02;4.30;;;3.40;99.90;;;;;;4993909;28;20046;-77
2021/12/08 01:07:14;;;;;;;10.00;3.58;;;3.30;99.90;;;;;;4995096;28;20077;-77
2021/12/08 01:09:40;;;;;;;8.88;4.22;;;3.30;99.90;;;;;;5012235;28;20390;-77
2021/12/08 01:12:06;;;;;;;7.90;3.83;;;3.30;99.90;;;;;;5014318;28;20057;-77
2021/12/08 01:14:34;;;;;;;9.25;4.13;;;3.30;99.90;;;;;;4997866;28;20405;-78
2021/12/08 01:17:02;;;;;;;13.30;4.05;;;3.30;99.90;;;;;;5013192;28;20050;-78
2021/12/08 01:19:28;;;;;;;12.80;4.50;;;3.30;99.90;;;;;;5005735;28;20185;-78
2021/12/08 01:21:54;;;;;;;10.48;4.32;;;3.30;99.90;;;;;;4994631;28;20449;-77
2021/12/08 01:24:20;;;;;;;11.48;4.10;;;3.30;99.90;;;;;;5010059;28;20132;-78
2021/12/08 01:26:47;;;;;;;13.50;4.60;;;3.30;99.90;;;;;;5013823;28;20046;-77
2021/12/08 01:29:12;;;;;;;13.38;4.10;;;3.30;99.90;;;;;;5013072;28;20057;-78
2021/12/08 01:31:43;;;;;;;12.80;4.38;;;3.30;99.90;;;;;;5015219;28;20042;-78
2021/12/08 01:34:10;;;;;;;12.15;4.38;;;3.30;99.90;;;;;;5013582;28;20060;-78
2021/12/08 01:36:37;;;;;;;9.30;3.97;;;3.30;99.90;;;;;;5013097;28;20057;-78
2021/12/08 01:39:04;;;;;;;12.18;4.43;;;3.30;99.90;;;;;;4999911;28;20050;-78
2021/12/08 01:41:30;;;;;;;12.05;4.47;;;3.40;99.90;;;;;;4995428;28;20038;-78
2021/12/08 01:46:40;;;;;;;10.10;5.20;;;3.40;99.90;;;;;;5005351;28;20050;-78
2021/12/08 01:49:06;;;;;;;9.57;3.63;;;3.50;99.90;;;;;;5013674;28;20513;-77
2021/12/08 01:51:32;;;;;;;10.43;4.68;;;3.50;99.90;;;;;;5012952;28;20111;-78
2021/12/08 01:54:01;;;;;;;14.05;4.90;;;3.50;99.90;;;;;;5000161;28;20498;-78
2021/12/08 01:56:29;;;;;;;9.20;4.50;;;3.60;99.90;;;;;;4994011;28;20042;-78
2021/12/08 01:58:56;;;;;;;13.57;4.93;;;3.50;99.90;;;;;;4977060;28;20109;-78
2021/12/08 02:01:25;;;;;;;8.65;4.53;;;3.50;99.90;;;;;;4993698;28;20524;-77
2021/12/08 02:03:51;;;;;;;9.40;4.30;;;3.60;99.90;;;;;;4993583;28;20050;-78
2021/12/08 02:06:19;;;;;;;7.47;3.90;;;3.60;99.90;;;;;;4992848;28;20058;-78
2021/12/08 02:08:47;;;;;;;12.32;5.13;;;3.60;99.90;;;;;;5004671;28;20046;-76
2021/12/08 02:11:13;;;;;;;10.43;4.35;;;3.60;99.90;;;;;;5013582;28;20041;-77
2021/12/08 02:13:40;;;;;;;9.95;5.05;;;3.70;99.90;;;;;;5014277;28;20052;-78
2021/12/08 02:16:10;;;;;;;10.13;5.40;;;3.70;99.90;;;;;;5012819;28;20125;-77
2021/12/08 02:18:37;;;;;;;10.07;4.97;;;3.80;99.90;;;;;;4995715;28;20046;-78
2021/12/08 02:21:05;;;;;;;12.23;4.50;;;3.70;99.90;;;;;;5012855;28;20509;-79
2021/12/08 02:23:31;;;;;;;7.18;4.57;;;3.70;99.90;;;;;;5003383;28;20061;-78
2021/12/08 02:25:58;;;;;;;9.65;4.57;;;3.70;99.90;;;;;;5005820;28;20409;-77
2021/12/08 02:28:24;;;;;;;9.45;5.45;;;3.80;99.90;;;;;;5012925;28;20083;-78
2021/12/08 02:31:00;;;;;;;9.85;4.65;;;3.80;99.90;;;;;;5014025;28;20128;-77
2021/12/08 02:47:28;;;;;;;10.57;4.80;;;3.90;99.90;;;;;;5008085;28;20125;-77
2021/12/08 02:49:54;;;;;;;8.88;5.10;;;3.90;99.90;;;;;;5012523;28;20088;-77
2021/12/08 02:52:20;;;;;;;11.93;5.53;;;3.90;99.90;;;;;;5012396;28;20081;-78
2021/12/08 02:54:49;;;;;;;13.25;5.90;;;3.90;99.90;;;;;;5006349;28;20056;-79
2021/12/08 02:57:18;;;;;;;9.60;5.40;;;3.90;99.90;;;;;;5012595;28;20042;-78
2021/12/08 02:59:46;;;;;;;17.50;5.72;;;4.00;99.90;;;;;;5012419;28;20056;-78
2021/12/08 03:02:13;;;;;;;12.57;6.47;;;4.00;99.90;;;;;;5011636;28;20112;-78
2021/12/08 03:04:38;;;;;;;12.65;5.22;;;4.00;99.90;;;;;;5013797;28;20050;-78
2021/12/08 03:07:06;;;;;;;10.43;5.95;;;4.00;99.90;;;;;;5013780;28;20429;-78
2021/12/08 03:09:31;;;;;;;11.63;5.95;;;4.00;99.90;;;;;;4994208;28;20058;-78
2021/12/08 03:12:00;;;;;;;16.67;7.20;;;4.00;99.90;;;;;;4992649;28;20453;-78
2021/12/08 03:14:28;;;;;;;16.15;6.28;;;4.00;99.90;;;;;;4993921;28;20128;-78
2021/12/08 03:16:57;;;;;;;12.63;6.18;;;4.10;99.90;;;;;;4992635;28;20042;-78
2021/12/08 03:19:25;;;;;;;10.02;6.40;;;4.00;99.90;;;;;;4992675;28;20505;-78
2021/12/08 03:21:52;;;;;;;15.52;7.90;;;4.10;99.90;;;;;;4991845;28;20058;-78
2021/12/08 03:24:27;;;;;;;13.80;7.90;;;4.30;99.90;;;;;;5007977;28;20136;-78
2021/12/08 03:29:56;;;;;;;13.90;7.28;;;4.20;99.90;;;;;;4994581;28;20549;-78
2021/12/08 03:32:37;;;;;;;17.83;7.80;;;4.20;99.90;;;;;;4996574;28;20561;-78
2021/12/08 03:35:06;;;;;;;12.50;7.20;;;4.20;99.90;;;;;;4996385;28;20524;-78
2021/12/08 03:37:35;;;;;;;16.55;7.38;;;4.20;99.90;;;;;;4997051;28;20504;-78
2021/12/08 03:40:06;;;;;;;11.50;7.93;;;4.30;99.90;;;;;;4996257;28;20130;-78
2021/12/08 03:42:35;;;;;;;11.93;8.30;;;4.30;99.90;;;;;;4996643;28;20439;-78
2021/12/08 03:45:06;;;;;;;15.02;8.38;;;4.30;99.90;;;;;;4995572;28;20058;-78
2021/12/08 03:47:32;;;;;;;20.60;8.15;;;4.30;99.90;;;;;;5014268;28;20397;-78
2021/12/08 03:50:03;;;;;;;17.10;8.65;;;4.30;99.90;;;;;;5014831;28;20095;-78
2021/12/08 03:52:28;;;;;;;13.65;7.57;;;4.40;99.90;;;;;;5014957;28;20057;-78
2021/12/08 03:54:55;;;;;;;11.35;8.95;;;4.40;99.90;;;;;;5014911;28;20386;-79
2021/12/08 03:57:20;;;;;;;13.55;8.48;;;4.40;99.90;;;;;;5014884;28;20121;-78
2021/12/08 03:59:46;;;;;;;13.90;8.48;;;4.40;99.90;;;;;;5015830;28;20133;-78
2021/12/08 04:02:12;;;;;;;15.15;8.32;;;4.50;99.90;;;;;;5015595;28;20620;-78
2021/12/08 04:04:46;;;;;;;13.68;8.60;;;4.50;99.90;;;;;;4998265;28;20053;-78
2021/12/08 04:07:14;;;;;;;15.77;8.23;;;4.50;99.90;;;;;;5015518;28;20062;-78
2021/12/08 04:09:42;;;;;;;15.32;7.93;;;4.50;99.90;;;;;;5012361;28;20057;-78
2021/12/08 04:12:10;;;;;;;14.88;8.32;;;4.60;99.90;;;;;;5014789;28;20120;-78
2021/12/08 04:14:40;;;;;;;18.48;9.18;;;4.60;99.90;;;;;;4998777;28;20065;-78
2021/12/08 04:17:22;;;;;;;17.38;9.63;;;4.60;99.90;;;;;;5015470;28;20139;-78
2021/12/08 04:19:48;;;;;;;21.35;9.07;;;4.60;99.90;;;;;;5014474;28;20081;-78
2021/12/08 04:22:19;;;;;;;13.38;9.57;;;4.60;99.90;;;;;;5015154;28;20041;-78
2021/12/08 04:24:48;;;;;;;19.45;8.90;;;4.60;99.90;;;;;;5012523;28;20409;-78
2021/12/08 04:27:19;;;;;;;16.55;8.27;;;4.60;99.90;;;;;;4979352;28;20375;-78
2021/12/08 04:29:46;;;;;;;18.33;8.77;;;4.70;99.90;;;;;;4995459;28;20130;-78
2021/12/08 04:32:16;;;;;;;14.43;8.57;;;4.70;99.90;;;;;;4994550;28;20136;-78
2021/12/08 04:34:45;;;;;;;14.63;7.70;;;4.70;99.90;;;;;;4996303;28;20096;-78
2021/12/08 04:37:20;;;;;;;16.85;9.05;;;4.70;99.90;;;;;;4995366;28;20490;-79
2021/12/08 04:40:06;;;;;;;;;;;4.70;99.90;;;;;;5013889;28;20057;-79
2021/12/08 04:43:11;;;;;;;17.50;8.68;;;4.70;99.90;;;;;;5015065;28;19972;-78
2021/12/08 04:45:39;;;;;;;14.73;9.05;;;4.70;99.90;;;;;;5013451;28;20054;-78
2021/12/08 04:51:30;;;;;;;;;;;4.80;99.90;;;;;;5015083;28;20061;-78
2021/12/08 05:10:16;;;;;;;15.73;8.25;;;5.00;99.90;;;;;;4996149;28;20469;-78
2021/12/08 05:12:46;;;;;;;15.55;7.90;;;5.10;99.90;;;;;;4994722;28;20501;-78
2021/12/08 05:15:23;;;;;;;15.68;8.00;;;5.10;99.90;;;;;;4993746;28;20516;-78
2021/12/08 05:18:16;;;;;;;17.45;7.07;;;5.10;99.90;;;;;;4994889;28;20054;-77
2021/12/08 05:20:42;;;;;;;11.95;7.28;;;5.20;99.90;;;;;;4997915;28;20058;-78
2021/12/08 05:23:16;;;;;;;16.10;8.15;;;5.20;99.90;;;;;;4983631;28;20056;-78
2021/12/08 05:25:43;;;;;;;15.50;7.83;;;5.30;99.90;;;;;;5014425;28;20128;-78
2021/12/08 05:28:22;;;;;;;17.13;7.25;;;5.30;99.90;;;;;;5013131;28;20081;-77
2021/12/08 05:31:11;;;;;;;15.48;7.22;;;5.40;99.90;;;;;;4997309;28;20112;-78
2021/12/08 05:33:42;;;;;;;15.40;7.47;;;5.40;99.90;;;;;;4997368;28;20052;-78
2021/12/08 05:36:09;;;;;;;13.52;6.88;;;5.40;99.90;;;;;;5012939;28;20125;-78
2021/12/08 05:38:37;;;;;;;10.50;6.75;;;5.40;99.90;;;;;;5003977;28;20101;-78
2021/12/08 05:41:27;;;;;;;16.42;7.22;;;5.40;99.90;;;;;;4994307;28;20129;-78
2021/12/08 05:43:53;;;;;;;12.70;6.45;;;5.40;99.90;;;;;;4993199;28;20058;-78
2021/12/08 05:46:22;;;;;;;13.32;7.28;;;5.40;99.90;;;;;;5001055;28;20057;-79
2021/12/08 05:48:50;;;;;;;13.40;6.90;;;5.40;99.90;;;;;;5012922;28;20054;-79
2021/12/08 05:51:23;;;;;;;18.02;6.93;;;5.40;99.90;;;;;;5011155;28;20121;-78
2021/12/08 05:53:52;;;;;;;10.52;6.53;;;5.40;99.90;;;;;;5000945;28;20059;-79
2021/12/08 05:56:19;;;;;;;17.30;7.93;;;5.40;99.90;;;;;;4993563;28;20137;-79
2021/12/08 05:58:46;;;;;;;14.60;6.85;;;5.40;99.90;;;;;;4977044;28;20086;-79
2021/12/08 06:01:18;;;;;;;14.25;6.75;;;5.30;99.90;;;;;;4994237;28;20046;-79
2021/12/08 06:03:47;;;;;;;14.18;7.00;;;5.30;99.90;;;;;;4993422;28;20409;-79
2021/12/08 06:06:13;;;;;;;10.70;6.20;;;5.30;99.90;;;;;;4993140;28;20054;-79
2021/12/08 06:08:40;;;;;;;10.98;6.20;;;5.30;99.90;;;;;;4986618;28;20053;-78
2021/12/08 06:11:09;;;;;;;13.93;6.22;;;5.30;99.90;;;;;;4995229;28;20555;-78
2021/12/08 06:13:36;;;;;;;15.15;7.05;;;5.20;99.90;;;;;;5012445;28;20045;-78
2021/12/08 06:16:04;;;;;;;18.58;6.07;;;5.20;99.90;;;;;;5012143;28;20085;-79
2021/12/08 06:18:36;;;;;;;9.95;7.20;;;5.10;99.90;;;;;;5011722;28;20046;-79
2021/12/08 06:21:04;;;;;;;17.35;6.38;;;5.00;99.90;;;;;;4996171;28;20441;-79
2021/12/08 06:23:32;;;;;;;18.88;6.20;;;4.90;99.90;;;;;;5002922;28;20085;-79
2021/12/08 06:25:58;;;;;;;12.27;6.65;;;4.90;99.90;;;;;;4991625;28;20108;-79
2021/12/08 06:28:24;;;;;;;14.85;7.57;;;4.80;99.90;;;;;;4992722;28;20367;-79
2021/12/08 06:30:51;;;;;;;13.52;6.57;;;4.80;99.90;;;;;;4992345;28;20073;-78
2021/12/08 06:33:20;;;;;;;12.25;7.05;;;4.80;99.90;;;;;;4991902;28;20386;-79
2021/12/08 06:36:00;;;;;;;15.75;6.70;;;4.70;99.90;;;;;;4992708;28;20046;-78
2021/12/08 06:38:27;;;;;;;13.45;7.20;;;4.70;99.90;;;;;;5000125;28;20046;-79
2021/12/08 06:41:04;;;;;;;16.55;7.07;;;4.70;99.90;;;;;;5011556;28;20184;-79
2021/12/08 06:43:36;;;;;;;12.90;6.07;;;4.70;99.90;;;;;;5011839;28;20492;-78
2021/12/08 06:46:03;;;;;;;21.77;7.40;;;4.60;99.90;;;;;;4971666;28;1152885;-78
2021/12/08 06:48:34;;;;;;;14.00;6.68;;;4.60;99.90;;;;;;5012855;28;20469;-77
2021/12/08 06:51:28;;;;;;;15.52;7.40;;;4.60;99.90;;;;;;5013673;28;20040;-78
2021/12/08 06:54:03;;;;;;;10.57;6.20;;;4.60;99.90;;;;;;5005605;28;20066;-78
2021/12/08 06:56:36;;;;;;;16.08;6.95;;;4.50;99.90;;;;;;5012900;28;20053;-79
2021/12/08 06:59:09;;;;;;;16.83;6.72;;;4.50;99.90;;;;;;5012796;28;20120;-79
2021/12/08 07:07:08;;;;;;;9.15;6.30;;;4.40;99.90;;;;;;5011639;28;20058;-78
2021/12/08 07:09:37;;;;;;;15.82;7.57;;;4.40;99.90;;;;;;4994721;28;20043;-78
2021/12/08 07:12:15;;;;;;;11.07;6.45;;;4.40;99.90;;;;;;4993120;28;20085;-78
2021/12/08 07:14:46;;;;;;;17.60;7.00;;;4.40;99.90;;;;;;4991907;28;20085;-79
2021/12/08 07:17:19;;;;;;;18.33;6.28;;;4.40;99.90;;;;;;4992767;28;20057;-79
2021/12/08 07:19:51;;;;;;;11.65;5.90;;;4.40;99.90;;;;;;4984745;28;20042;-81
2021/12/08 07:22:26;;;;;;;13.02;6.50;;;4.40;99.90;;;;;;5011604;28;20497;-79
2021/12/08 07:24:55;;;;;;;12.43;6.05;;;4.30;99.90;;;;;;5012235;28;20054;-78
2021/12/08 07:27:25;;;;;;;17.05;6.80;;;4.40;99.90;;;;;;5012198;28;20108;-78
2021/12/08 07:29:53;;;;;;;12.35;6.43;;;4.40;99.90;;;;;;4994483;28;20108;-78
2021/12/08 07:32:23;;;;;;;14.63;5.90;;;4.40;99.90;;;;;;5012099;28;20053;-79
2021/12/08 07:34:52;;;;;;;15.20;5.68;;;4.40;99.90;;;;;;5012254;28;20092;-78
2021/12/08 07:37:23;;;;;;;17.67;5.88;;;4.40;99.90;;;;;;5012343;28;20048;-78
2021/12/08 07:39:58;;;;;;;16.35;5.22;;;4.40;99.90;;;;;;4995691;28;20497;-78
2021/12/08 07:42:31;;;;;;;12.13;4.22;;;4.40;99.90;;;;;;5011572;28;20443;-79
2021/12/08 07:45:00;;;;;;;15.32;4.43;;;4.40;99.90;;;;;;4995648;28;20058;-78
2021/12/08 07:47:28;;;;;;;11.10;3.92;;;4.40;99.90;;;;;;5000715;28;20471;-78
2021/12/08 07:49:59;;;;;;;16.30;4.15;;;4.40;99.90;;;;;;5012977;28;20057;-78
2021/12/08 07:52:33;;;;;;;10.85;4.13;;;4.40;99.90;;;;;;5029453;28;20187;-78
2021/12/08 07:55:00;;;;;;;13.35;3.50;;;4.30;99.90;;;;;;4976082;28;20050;-78
2021/12/08 07:57:30;;;;;;;10.02;4.18;;;4.30;99.90;;;;;;4991393;28;20046;-78
2021/12/08 08:00:04;;;;;;;10.45;3.97;;;4.30;99.90;;;;;;4992172;28;20054;-78
2021/12/08 08:02:30;;;;;;;10.40;4.13;;;4.30;99.90;;;;;;4992317;28;20062;-78
2021/12/08 08:04:58;;;;;;;15.35;4.43;;;4.30;99.90;;;;;;4992485;28;20486;-78
2021/12/08 08:07:26;;;;;;;9.77;3.67;;;4.30;99.90;;;;;;4993652;28;20046;-78
2021/12/08 08:10:01;;;;;;;7.43;3.67;;;4.20;99.90;;;;;;4991656;28;20061;-78
2021/12/08 08:12:32;;;;;;;10.88;3.10;;;4.30;99.90;;;;;;4992025;28;20560;-78
2021/12/08 08:15:01;;;;;;;8.98;3.38;;;4.20;99.90;;;;;;4993729;28;20066;-78
2021/12/08 08:17:37;;;;;;;8.23;2.90;;;4.30;99.90;;;;;;4994874;28;20046;-78
2021/12/08 08:20:11;;;;;;;8.30;2.55;;;4.30;99.90;;;;;;4995653;28;20053;-78
2021/12/08 08:22:37;;;;;;;11.53;2.93;;;4.30;99.90;;;;;;5011755;28;20046;-78
2021/12/08 08:25:07;;;;;;;8.20;2.80;;;4.30;99.90;;;;;;4978343;28;20512;-77
2021/12/08 08:27:33;;;;;;;13.77;3.10;;;4.40;99.90;;;;;;4995593;28;20445;-77
2021/12/08 08:30:02;;;;;;;8.55;2.53;;;4.40;99.90;;;;;;4995275;28;20054;-78
2021/12/08 08:32:33;;;;;;;8.80;2.60;;;4.40;99.90;;;;;;5006692;28;20061;-78
2021/12/08 08:35:05;;;;;;;11.45;2.78;;;4.50;99.90;;;;;;5014482;28;20046;-78
2021/12/08 08:37:31;;;;;;;12.57;3.88;;;4.50;99.90;;;;;;5003521;28;20041;-78
2021/12/08 08:40:01;;;;;;;7.15;2.60;;;4.50;99.90;;;;;;4994210;28;20505;-78
2021/12/08 08:42:37;;;;;;;9.18;3.22;;;4.60;99.90;;;;;;4994940;28;20576;-78
2021/12/08 08:45:15;;;;;;;13.73;2.45;;;4.50;99.90;;;;;;4994333;28;20455;-78
2021/12/08 08:48:07;;;;;;;12.77;3.28;;;4.50;99.90;;;;;;5014047;28;20490;-78
2021/12/08 08:50:39;;;;;;;14.20;3.50;;;4.50;99.90;;;;;;5014386;28;20049;-78
2021/12/08 08:53:06;;;;;;;15.35;2.80;;;4.60;99.90;;;;;;5012221;28;20048;-77
2021/12/08 08:55:43;;;;;;;19.40;5.55;;;4.60;99.90;;;;;;5014656;28;20480;-78
2021/12/08 08:58:11;;;;;;;20.85;3.30;;;4.60;99.90;;;;;;4997995;28;20046;-77
2021/12/08 09:00:46;;;;;;;9.02;2.40;;;4.60;99.90;;;;;;5013344;28;20050;-78
2021/12/08 09:03:18;;;;;;;;;;;4.60;99.90;;;;;;5014944;28;20452;-77
2021/12/08 09:06:07;;;;;;;8.95;2.50;;;4.60;99.90;;;;;;5014154;28;20008;-78
2021/12/08 09:08:36;;;;;;;6.68;1.90;;;4.60;99.90;;;;;;5005518;28;20097;-77
2021/12/08 09:11:19;;;;;;;11.02;2.08;;;4.60;99.90;;;;;;4994813;28;20065;-77
2021/12/08 09:14:03;;;;;;;9.60;1.80;;;4.70;99.90;;;;;;4993709;28;20506;-78
2021/12/08 09:16:53;;;;;;;10.48;2.72;;;4.70;99.90;;;;;;4994390;28;20501;-77
2021/12/08 09:19:25;;;;;;;9.93;2.22;;;4.70;99.90;;;;;;5002752;28;20134;-78
2021/12/08 09:22:21;;;;;;;12.55;3.13;;;4.70;99.90;;;;;;5004733;28;20566;-78
2021/12/08 09:24:56;;;;;;;15.85;2.92;;;4.70;99.90;;;;;;5015187;28;20079;-78
2021/12/08 09:27:31;;;;;;;10.32;2.85;;;4.70;99.90;;;;;;5015721;28;20053;-77
2021/12/08 09:30:04;;;;;;;16.90;3.00;;;4.70;99.90;;;;;;5033562;28;20037;-77
2021/12/08 09:32:39;;;;;;;14.73;3.17;;;4.70;99.90;;;;;;4991320;28;20575;-77
2021/12/08 09:35:28;;;;;;;12.77;2.50;;;4.70;99.90;;;;;;4993357;28;20413;-77
2021/12/08 09:38:00;;;;;;;11.82;3.05;;;4.70;99.90;;;;;;4981641;28;20046;-78
2021/12/08 09:40:43;;;;;;;10.23;2.95;;;4.70;99.90;;;;;;5013789;28;20050;-77
2021/12/08 09:43:19;;;;;;;12.75;3.45;;;4.80;99.90;;;;;;5010724;28;20049;-77
2021/12/08 09:45:54;;;;;;;16.23;2.75;;;4.80;99.90;;;;;;5013079;28;20073;-78
2021/12/08 09:48:20;;;;;;;12.88;4.05;;;4.80;99.90;;;;;;4977576;28;20038;-77
2021/12/08 09:50:46;;;;;;;13.82;3.10;;;4.90;99.90;;;;;;4993423;28;20053;-77
2021/12/08 09:53:13;;;;;;;8.82;2.60;;;4.90;99.90;;;;;;4999878;28;20041;-77
2021/12/08 09:55:40;;;;;;;13.18;3.05;;;5.00;99.90;;;;;;4996180;28;20050;-77
2021/12/08 09:58:07;;;;;;;10.90;3.15;;;5.00;99.90;;;;;;5013483;28;20041;-77
2021/12/08 10:00:38;;;;;;;17.20;2.90;;;5.00;99.90;;;;;;4997171;28;20052;-77
2021/12/08 10:03:05;;;;;;;15.43;3.38;;;5.10;99.90;;;;;;5012424;28;20482;-77
2021/12/08 10:05:34;;;;;;;11.60;2.08;;;5.10;99.90;;;;;;5013416;28;20124;-78
2021/12/08 10:08:01;;;;;;;13.73;2.33;;;5.20;99.90;;;;;;4995014;28;20143;-77
2021/12/08 10:10:29;;;;;;;11.88;2.85;;;5.20;99.90;;;;;;5001039;28;20045;-77
2021/12/08 10:12:55;;;;;;;10.57;2.45;;;5.30;99.90;;;;;;5012944;28;20482;-77
2021/12/08 10:15:22;;;;;;;9.85;3.05;;;5.30;99.90;;;;;;5013013;28;20064;-77
2021/12/08 10:17:49;;;;;;;9.80;1.98;;;5.40;99.90;;;;;;5012125;28;20049;-78
2021/12/08 10:20:19;;;;;;;9.60;2.60;;;5.40;99.90;;;;;;5012149;28;20489;-77
2021/12/08 10:22:49;;;;;;;9.02;2.40;;;5.40;99.90;;;;;;5010115;28;20442;-77
2021/12/08 10:25:18;;;;;;;11.77;3.42;;;5.40;99.90;;;;;;4992355;28;20136;-77
2021/12/08 10:28:17;;;;;;;16.13;2.33;;;5.50;99.90;;;;;;4993392;28;20053;-77
2021/12/08 10:30:56;;;;;;;10.35;2.17;;;5.50;99.90;;;;;;5005014;28;20088;-77
2021/12/08 10:34:00;;;;;;;12.13;2.35;;;5.50;99.90;;;;;;5000776;28;20505;-77
2021/12/08 10:39:35;;;;;;;9.77;1.80;;;5.60;99.90;;;;;;4992395;28;20484;-77
2021/12/08 10:42:23;;;;;;;15.40;2.47;;;5.60;99.90;;;;;;4992883;28;20050;-77
2021/12/08 10:45:21;;;;;;;7.18;2.20;;;5.70;99.90;;;;;;4991823;28;20418;-77
2021/12/08 10:47:49;;;;;;;13.48;2.00;;;5.70;99.90;;;;;;4992769;28;20056;-78
2021/12/08 10:56:08;;;;;;;17.55;3.95;;;5.70;99.90;;;;;;4999091;28;20383;-78
2021/12/08 10:58:37;;;;;;;7.32;1.90;;;5.70;99.90;;;;;;4992889;28;20405;-77
2021/12/08 11:01:13;;;;;;;12.50;2.72;;;5.70;99.90;;;;;;4991868;28;20100;-77
2021/12/08 11:03:40;;;;;;;9.65;2.22;;;5.70;99.90;;;;;;4992646;28;20053;-77
2021/12/08 11:06:06;;;;;;;11.13;2.58;;;5.80;99.90;;;;;;4992109;28;20050;-77
2021/12/08 11:08:39;;;;;;;14.27;2.92;;;5.80;99.90;;;;;;5000913;28;20052;-78
2021/12/08 11:11:11;;;;;;;10.70;2.10;;;5.90;99.90;;;;;;5012563;28;20081;-78
2021/12/08 11:13:47;;;;;;;14.05;1.77;;;5.90;99.90;;;;;;4992515;28;20409;-77
2021/12/08 11:16:17;;;;;;;9.65;2.30;;;5.90;99.90;;;;;;5008171;28;20586;-77
2021/12/08 11:18:48;;;;;;;11.50;2.92;;;6.00;99.90;;;;;;4992340;28;20048;-77
2021/12/08 11:21:35;;;;;;;13.63;2.25;;;5.90;99.90;;;;;;4988441;28;20108;-78
2021/12/08 11:24:02;;;;;;;8.57;1.83;;;6.00;99.90;;;;;;5010846;28;20042;-77
2021/12/08 11:26:37;;;;;;;9.13;2.05;;;6.00;99.90;;;;;;5013650;28;20128;-77
2021/12/08 11:29:19;;;;;;;6.95;2.10;;;6.00;99.90;;;;;;4996410;28;20043;-78
2021/12/08 11:31:47;;;;;;;13.07;2.97;;;6.00;99.90;;;;;;4992950;28;20125;-77
2021/12/08 11:34:24;;;;;;;12.38;2.10;;;6.10;99.90;;;;;;4991700;28;20502;-77
2021/12/08 11:36:52;;;;;;;7.95;1.65;;;6.10;99.90;;;;;;4976283;28;20057;-78
2021/12/08 11:39:22;;;;;;;12.98;2.25;;;6.10;99.90;;;;;;5007670;28;20116;-77
2021/12/08 11:41:51;;;;;;;12.57;2.58;;;6.10;99.90;;;;;;5012618;28;20045;-78
2021/12/08 11:44:30;;;;;;;8.65;2.42;;;6.10;99.90;;;;;;5011962;28;20073;-78
2021/12/08 11:47:01;;;;;;;7.78;2.03;;;6.00;99.90;;;;;;5012054;28;20053;-77
2021/12/08 11:49:27;;;;;;;11.40;1.92;;;6.00;99.90;;;;;;4996028;28;20056;-77
2021/12/08 11:51:58;;;;;;;7.72;3.17;;;6.00;99.90;;;;;;5011547;28;20454;-77
2021/12/08 11:54:29;;;;;;;9.50;2.10;;;6.00;99.90;;;;;;5011119;28;20046;-78
2021/12/08 11:57:25;;;;;;;7.03;2.10;;;6.00;99.90;;;;;;5010638;28;20044;-78
2021/12/08 11:59:55;;;;;;;5.50;2.00;;;5.90;99.90;;;;;;4994293;28;20426;-78
2021/12/08 12:02:25;;;;;;;9.75;1.98;;;5.90;99.90;;;;;;4995165;28;20050;-78
2021/12/08 12:04:51;;;;;;;6.45;2.22;;;5.90;99.90;;;;;;4996290;28;20117;-77
2021/12/08 12:07:17;;;;;;;9.82;2.65;;;5.90;99.90;;;;;;4997323;28;20117;-78
2021/12/08 12:09:44;;;;;;;9.98;1.85;;;5.80;99.90;;;;;;5013187;28;20045;-77
2021/12/08 12:12:11;;;;;;;10.90;2.67;;;5.80;99.90;;;;;;5015429;28;20093;-78
2021/12/08 12:14:36;;;;;;;17.48;2.90;;;5.80;99.90;;;;;;5016398;28;20490;-78
2021/12/08 12:17:03;;;;;;;12.32;2.72;;;5.80;99.90;;;;;;5014399;28;20053;-77
2021/12/08 12:19:39;;;;;;;10.90;2.17;;;5.80;99.90;;;;;;5015456;28;20461;-78
2021/12/08 12:22:19;;;;;;;7.10;2.30;;;5.90;99.90;;;;;;4999312;28;20089;-77
2021/12/08 12:24:47;;;;;;;9.88;2.60;;;5.80;99.90;;;;;;4998352;28;20054;-77
2021/12/08 12:27:25;;;;;;;18.23;2.55;;;5.80;99.90;;;;;;5015119;28;20041;-77
2021/12/08 12:30:09;;;;;;;8.68;3.13;;;5.80;99.90;;;;;;5014987;28;20564;-77
2021/12/08 12:32:45;;;;;;;7.45;1.88;;;5.90;99.90;;;;;;5015135;28;20057;-78
2021/12/08 12:35:28;;;;;;;8.05;2.20;;;5.90;99.90;;;;;;5014857;28;20045;-77
2021/12/08 12:38:07;;;;;;;8.68;1.95;;;5.90;99.90;;;;;;5011600;28;20109;-78
2021/12/08 12:40:37;;;;;;;7.30;2.20;;;5.90;99.90;;;;;;4979380;28;20046;-77
2021/12/08 12:43:05;;;;;;;15.60;3.40;;;5.90;99.90;;;;;;4996586;28;20050;-77
2021/12/08 12:45:46;;;;;;;34.35;11.95;;;5.90;99.90;;;;;;4994295;28;20051;-78
2021/12/08 12:48:24;;;;;;;13.32;3.85;;;5.90;99.90;;;;;;4995526;28;20058;-78
2021/12/08 12:51:03;;;;;;;6.90;2.15;;;5.90;99.90;;;;;;4995479;28;20112;-78
2021/12/08 12:53:47;;;;;;;8.15;2.17;;;6.00;99.90;;;;;;4995112;28;20047;-78
2021/12/08 12:56:14;;;;;;;7.68;2.03;;;5.90;99.90;;;;;;4994941;28;20058;-78
2021/12/08 12:58:48;;;;;;;8.52;1.60;;;5.90;99.90;;;;;;4994388;28;20053;-78
2021/12/08 13:01:17;;;;;;;7.93;1.98;;;5.90;99.90;;;;;;4994953;28;20060;-78
2021/12/08 13:03:52;;;;;;;10.43;2.03;;;5.90;99.90;;;;;;4994949;28;20517;-78
2021/12/08 13:06:41;;;;;;;;;;;6.00;99.90;;;;;;4994664;28;20115;-78
2021/12/08 13:09:29;;;;;;;10.38;2.95;;;5.90;99.90;;;;;;5009531;28;19921;-78
2021/12/08 13:12:20;;;;;;;12.77;2.75;;;5.90;99.90;;;;;;4987881;28;20405;-78
2021/12/08 13:15:05;;;;;;;16.17;3.00;;;5.90;99.90;;;;;;4994577;28;20051;-78
2021/12/08 13:17:31;;;;;;;11.95;2.63;;;5.90;99.90;;;;;;4994761;28;20050;-78
2021/12/08 13:19:59;;;;;;;12.60;3.03;;;5.90;99.90;;;;;;4993974;28;20379;-78
2021/12/08 13:22:48;;;;;;;10.82;2.50;;;5.90;99.90;;;;;;4995851;28;20477;-78
2021/12/08 13:25:53;;;;;;;7.47;2.55;;;5.90;99.90;;;;;;5001691;28;20053;-78
2021/12/08 13:28:48;;;;;;;8.07;2.35;;;6.00;99.90;;;;;;4982744;28;20065;-78
2021/12/08 13:31:25;;;;;;;6.07;2.50;;;6.00;99.90;;;;;;4994629;28;20082;-78
2021/12/08 13:33:58;;;;;;;11.15;3.40;;;6.10;99.90;;;;;;5003205;28;20050;-78
2021/12/08 13:36:29;;;;;;;5.30;1.83;;;6.00;99.90;;;;;;5013915;28;20056;-78
2021/12/08 13:38:58;;;;;;;9.10;2.22;;;6.10;99.90;;;;;;5001899;28;20597;-77
2021/12/08 13:41:30;;;;;;;7.30;2.33;;;6.00;99.90;;;;;;4993546;28;20050;-78
2021/12/08 13:43:57;;;;;;;8.30;2.40;;;6.00;99.90;;;;;;4994064;28;20474;-78
2021/12/08 13:46:42;;;;;;;9.07;2.45;;;6.00;99.90;;;;;;4995213;28;20054;-77
2021/12/08 13:49:14;;;;;;;8.25;2.38;;;5.90;99.90;;;;;;4993600;28;20061;-78
2021/12/08 13:51:40;;;;;;;8.60;2.08;;;5.90;99.90;;;;;;4994038;28;20054;-78
2021/12/08 13:54:28;;;;;;;9.05;3.28;;;5.90;99.90;;;;;;5006533;28;20444;-78
2021/12/08 13:56:55;;;;;;;7.70;2.00;;;5.90;99.90;;;;;;4995474;28;20042;-78
2021/12/08 13:59:55;;;;;;;11.10;3.97;;;5.80;99.90;;;;;;4994007;28;20047;-78
2021/12/08 14:02:35;;;;;;;7.55;2.05;;;5.80;99.90;;;;;;4992999;28;20553;-78
2021/12/08 14:05:01;;;;;;;9.07;2.38;;;5.70;99.90;;;;;;4993980;28;20394;-78
2021/12/08 14:07:27;;;;;;;8.60;2.97;;;5.70;99.90;;;;;;4993485;28;20046;-78
2021/12/08 14:10:03;;;;;;;12.90;2.45;;;5.60;99.90;;;;;;5012218;28;20054;-78